This is the latest recevied weather packets stored in our database for station/object KB1YYC. If no packets are shown the sender has not sent any weather packets the latest 10 day(s).
| Time | Temp. | Humidity | Pressure | Rain* | Wind** | Luminosity | Snow |
|---|---|---|---|---|---|---|---|
| 1778096848 | 15.56° C | 98% | 1006.2 hPa | 0 mm | - | 70 W/m² | - |
| 1778096545 | 15.56° C | 98% | 1006.2 hPa | 0 mm | - | 73 W/m² | - |
| 1778096242 | 15° C | 98% | 1006.6 hPa | 1.27 mm | - | 55 W/m² | - |
| 1778095939 | 15° C | 98% | 1006.4 hPa | 4.83 mm | - | 50 W/m² | - |
| 1778095636 | 15.56° C | 98% | 1006.5 hPa | 3.05 mm | - | 57 W/m² | - |
| 1778095332 | 15.56° C | 98% | 1006.6 hPa | 3.05 mm | - | 61 W/m² | - |
| 1778095029 | 15.56° C | 98% | 1006.7 hPa | 1.27 mm | - | 68 W/m² | - |
| 1778094725 | 15.56° C | 97% | 1006.7 hPa | 1.78 mm | - | 57 W/m² | - |
| 1778094422 | 15.56° C | 97% | 1006.5 hPa | 1.27 mm | - | 99 W/m² | - |
| 1778094113 | 15.56° C | 97% | 1006.6 hPa | 1.78 mm | - | 85 W/m² | - |
| 1778093811 | 15.56° C | 97% | 1006.7 hPa | 4.83 mm | - | 73 W/m² | - |
| 1778093506 | 15° C | 97% | 1006.8 hPa | 11.94 mm | - | 65 W/m² | - |
| 1778093205 | 15° C | 97% | 1007 hPa | 21.08 mm | - | 49 W/m² | - |
| 1778092902 | 15.56° C | 96% | 1007.3 hPa | 16.76 mm | - | 26 W/m² | - |
| 1778092598 | 15.56° C | 95% | 1006.9 hPa | 13.72 mm | - | 29 W/m² | - |
| 1778092294 | 15.56° C | 94% | 1007.1 hPa | 7.11 mm | - | 35 W/m² | - |
| 1778091992 | 15.56° C | 94% | 1006.8 hPa | 6.1 mm | - | 34 W/m² | - |
| 1778091688 | 16.11° C | 92% | 1006.3 hPa | 9.65 mm | - | 75 W/m² | - |
| 1778091387 | 16.67° C | 90% | 1006.6 hPa | 3.05 mm | - | 34 W/m² | - |
| 1778091083 | 16.67° C | 86% | 1006.5 hPa | 1.27 mm | - | 59 W/m² | - |
| 1778090780 | 17.78° C | 85% | 1006.4 hPa | 0 mm | - | 96 W/m² | - |
| 1778090477 | 18.33° C | 80% | 1006.3 hPa | 0 mm | - | 67 W/m² | - |
| 1778090173 | 18.89° C | 76% | 1006.3 hPa | 0 mm | - | 85 W/m² | - |
| 1778089869 | 19.44° C | 73% | 1006.2 hPa | 0 mm | - | 111 W/m² | - |
| 1778089568 | 20° C | 72% | 1006.1 hPa | 0 mm | - | 144 W/m² | - |
* Rain latest hour (hover to see other rain measurements)
** Current wind speed in m/s (hover to see current wind gust speed)